createdAt,value
2023-04-04T00:00:35.816Z,97188.72
2023-04-04T00:03:03.142Z,97199.69
2023-04-04T00:05:30.302Z,97187.22
2023-04-04T00:07:57.452Z,97179.72
2023-04-04T00:10:24.496Z,97174.38
2023-04-04T00:12:51.995Z,97182.53
2023-04-04T00:15:19.168Z,97167.16
2023-04-04T00:17:46.816Z,97156.13
2023-04-04T00:20:14.666Z,97138.03
2023-04-04T00:22:42.448Z,97132.56
2023-04-04T00:25:10.998Z,97136.03
2023-04-04T00:27:38.050Z,97125.19
2023-04-04T00:30:06.169Z,97128.94
2023-04-04T00:32:33.342Z,97130.97
2023-04-04T00:35:00.660Z,97117.19
2023-04-04T00:37:28.154Z,97120.59
2023-04-04T00:39:55.469Z,97127.66
2023-04-04T00:42:23.067Z,97110.25
2023-04-04T00:44:52.416Z,97108.88
2023-04-04T00:47:23.535Z,97099.00
2023-04-04T00:49:51.381Z,97087.53
2023-04-04T00:52:18.538Z,97085.84
2023-04-04T00:54:45.649Z,97086.25
2023-04-04T00:57:13.149Z,97080.06
2023-04-04T00:59:40.345Z,97075.16
2023-04-04T01:02:08.640Z,97069.28
2023-04-04T01:04:36.598Z,97069.81
2023-04-04T01:07:04.656Z,97057.88
2023-04-04T01:09:32.285Z,97055.19
2023-04-04T01:11:59.510Z,97063.41
2023-04-04T01:14:29.018Z,97052.13
2023-04-04T01:16:56.542Z,97049.59
2023-04-04T01:19:37.347Z,97043.53
2023-04-04T01:22:10.580Z,97048.06
2023-04-04T01:24:42.357Z,97048.75
2023-04-04T01:27:09.947Z,97050.13
2023-04-04T01:29:43.367Z,97038.25
2023-04-04T01:32:26.936Z,97034.34
2023-04-04T01:35:08.492Z,97044.75
2023-04-04T01:37:52.933Z,97036.69
2023-04-04T01:40:35.141Z,97032.13
2023-04-04T01:43:03.654Z,97028.75
2023-04-04T01:45:33.226Z,97029.56
2023-04-04T01:48:03.591Z,97013.22
2023-04-04T01:50:30.760Z,97014.13
2023-04-04T01:52:58.358Z,97005.31
2023-04-04T01:55:26.150Z,97004.34
2023-04-04T01:57:53.245Z,96999.50
2023-04-04T02:00:20.623Z,96993.44
2023-04-04T02:02:47.843Z,96976.03
2023-04-04T02:05:15.093Z,96972.53
2023-04-04T02:07:42.232Z,96964.38
2023-04-04T02:10:21.589Z,96955.56
2023-04-04T02:12:48.850Z,96960.78
2023-04-04T02:15:15.996Z,96951.84
2023-04-04T02:17:47.903Z,96950.22
2023-04-04T02:20:15.776Z,96946.25
2023-04-04T02:22:42.999Z,96948.84
2023-04-04T02:25:10.172Z,96954.28
2023-04-04T02:27:37.263Z,96957.88
2023-04-04T02:30:04.578Z,96964.31
2023-04-04T02:32:31.646Z,96970.44
2023-04-04T02:34:58.744Z,96966.63
2023-04-04T02:37:25.852Z,96955.28
2023-04-04T02:39:54.174Z,96955.00
2023-04-04T02:42:22.284Z,96954.81
2023-04-04T02:44:50.972Z,96947.50
2023-04-04T02:47:18.669Z,96944.69
2023-04-04T02:49:46.137Z,96942.88
2023-04-04T02:52:14.715Z,96933.78
2023-04-04T02:54:46.397Z,96930.28
2023-04-04T02:57:24.477Z,96933.88
2023-04-04T02:59:51.971Z,96925.00
2023-04-04T03:02:19.303Z,96933.28
2023-04-04T03:04:46.455Z,96938.66
2023-04-04T03:07:14.273Z,96933.28
2023-04-04T03:09:45.247Z,96925.75
2023-04-04T03:12:12.574Z,96930.00
2023-04-04T03:14:40.888Z,96917.00
2023-04-04T03:17:09.710Z,96913.75
2023-04-04T03:19:36.950Z,96918.38
2023-04-04T03:22:04.044Z,96909.56
2023-04-04T03:24:33.648Z,96914.31
2023-04-04T03:27:03.674Z,96916.25
2023-04-04T03:29:31.443Z,96909.75
2023-04-04T03:31:59.000Z,96912.59
2023-04-04T03:34:26.111Z,96917.53
2023-04-04T03:36:54.029Z,96917.91
2023-04-04T03:39:21.228Z,96915.75
2023-04-04T03:41:48.408Z,96919.94
2023-04-04T03:44:15.663Z,96930.50
2023-04-04T03:46:42.964Z,96934.25
2023-04-04T03:49:13.195Z,96935.50
2023-04-04T03:51:40.235Z,96928.00
2023-04-04T03:54:07.395Z,96939.41
2023-04-04T03:56:34.536Z,96931.25
2023-04-04T03:59:05.090Z,96934.84
2023-04-04T04:01:32.357Z,96932.63
2023-04-04T04:04:01.281Z,96944.97
2023-04-04T04:06:28.500Z,96935.00
2023-04-04T04:08:56.699Z,96928.81
2023-04-04T04:11:23.803Z,96929.91
2023-04-04T04:13:50.985Z,96936.50
2023-04-04T04:16:18.382Z,96943.28
2023-04-04T04:18:46.311Z,96937.91
2023-04-04T04:21:20.081Z,96931.66
2023-04-04T04:23:47.203Z,96932.16
2023-04-04T04:26:14.353Z,96910.97
2023-04-04T04:28:41.559Z,96917.97
2023-04-04T04:31:13.532Z,96904.31
2023-04-04T04:33:44.072Z,96902.84
2023-04-04T04:36:11.582Z,96889.78
2023-04-04T04:38:50.891Z,96868.34
2023-04-04T04:41:18.517Z,96868.56
2023-04-04T04:43:49.763Z,96856.50
2023-04-04T04:46:16.972Z,96868.88
2023-04-04T04:48:44.378Z,96833.59
2023-04-04T04:51:15.035Z,96851.56
2023-04-04T04:53:50.563Z,96836.03
2023-04-04T04:56:17.797Z,96831.47
2023-04-04T04:58:49.076Z,96829.03
2023-04-04T05:01:22.469Z,96835.50
2023-04-04T05:03:52.087Z,96850.25
2023-04-04T05:06:27.383Z,96856.94
2023-04-04T05:08:55.706Z,96842.59
2023-04-04T05:11:33.151Z,96862.97
2023-04-04T05:14:02.085Z,96883.13
2023-04-04T05:16:34.524Z,96896.50
2023-04-04T05:19:03.010Z,96914.41
2023-04-04T05:21:36.498Z,96911.63
2023-04-04T05:24:06.412Z,96919.19
2023-04-04T05:26:38.039Z,96921.34
2023-04-04T05:29:05.616Z,96938.28
2023-04-04T05:31:34.495Z,96930.59
2023-04-04T05:34:09.480Z,96937.06
2023-04-04T05:36:38.175Z,96946.56
2023-04-04T05:39:07.293Z,96949.75
2023-04-04T05:41:39.968Z,96935.00
2023-04-04T05:44:16.775Z,96935.50
2023-04-04T05:46:44.066Z,96924.09
2023-04-04T05:49:11.914Z,96917.69
2023-04-04T05:51:43.624Z,96913.28
2023-04-04T05:54:13.969Z,96916.09
2023-04-04T05:56:42.377Z,96924.97
2023-04-04T05:59:18.023Z,96917.69
2023-04-04T06:02:05.438Z,96920.31
2023-04-04T06:04:33.269Z,96923.13
2023-04-04T06:07:02.524Z,96920.53
2023-04-04T06:09:29.627Z,96911.66
2023-04-04T06:11:56.773Z,96915.47
2023-04-04T06:14:24.058Z,96913.56
2023-04-04T06:16:51.820Z,96901.59
2023-04-04T06:19:20.172Z,96894.91
2023-04-04T06:21:48.810Z,96902.53
2023-04-04T06:24:16.337Z,96902.84
2023-04-04T06:26:44.035Z,96899.78
2023-04-04T06:29:12.377Z,96905.81
2023-04-04T06:31:41.529Z,96909.44
2023-04-04T06:34:13.701Z,96907.00
2023-04-04T06:36:52.675Z,96897.34
2023-04-04T06:39:21.559Z,96898.34
2023-04-04T06:41:51.451Z,96893.09
2023-04-04T06:44:24.263Z,96881.53
2023-04-04T06:46:52.047Z,96877.78
2023-04-04T06:49:19.149Z,96882.56
2023-04-04T06:51:46.972Z,96877.78
2023-04-04T06:54:14.786Z,96876.50
2023-04-04T06:56:41.960Z,96849.53
2023-04-04T06:59:11.672Z,96856.06
2023-04-04T07:01:38.842Z,96842.31
2023-04-04T07:04:06.284Z,96830.19
2023-04-04T07:06:33.406Z,96828.41
2023-04-04T07:09:00.534Z,96823.19
2023-04-04T07:11:27.658Z,96817.34
2023-04-04T07:13:54.800Z,96806.25
2023-04-04T07:16:22.023Z,96800.69
2023-04-04T07:18:49.126Z,96788.63
2023-04-04T07:21:17.582Z,96781.94
2023-04-04T07:23:44.654Z,96787.00
2023-04-04T07:26:43.539Z,96817.63
2023-04-04T07:29:10.948Z,96847.22
2023-04-04T07:31:38.102Z,96842.63
2023-04-04T07:34:05.258Z,96822.69
2023-04-04T07:39:35.173Z,96804.53
2023-04-04T07:42:02.421Z,96801.06
2023-04-04T07:44:29.666Z,96793.03
2023-04-04T07:47:08.488Z,96778.84
2023-04-04T07:49:36.987Z,96773.75
2023-04-04T07:52:04.786Z,96767.69
2023-04-04T07:54:32.056Z,96759.84
2023-04-04T07:56:59.123Z,96757.88
2023-04-04T07:59:26.519Z,96776.16
2023-04-04T08:01:53.685Z,96786.97
2023-04-04T08:04:20.876Z,96794.53
2023-04-04T08:06:47.962Z,96795.66
2023-04-04T08:09:15.055Z,96790.94
2023-04-04T08:11:42.789Z,96783.63
2023-04-04T08:14:13.399Z,96788.78
2023-04-04T08:16:41.087Z,96781.13
2023-04-04T08:19:08.547Z,96769.50
2023-04-04T08:21:35.701Z,96764.78
2023-04-04T08:24:02.832Z,96765.59
2023-04-04T08:26:30.804Z,96768.69
2023-04-04T08:28:57.830Z,96771.34
2023-04-04T08:31:25.158Z,96779.84
2023-04-04T08:33:52.706Z,96795.25
2023-04-04T08:36:19.853Z,96792.16
2023-04-04T08:38:46.990Z,96796.59
2023-04-04T08:41:15.889Z,96791.06
2023-04-04T08:43:46.660Z,96793.00
2023-04-04T08:46:15.807Z,96787.06
2023-04-04T08:48:45.036Z,96791.00
2023-04-04T08:51:14.699Z,96794.31
2023-04-04T08:53:41.883Z,96796.47
2023-04-04T08:56:09.360Z,96799.03
2023-04-04T08:58:39.095Z,96804.66
2023-04-04T09:01:07.485Z,96810.19
2023-04-04T09:03:36.934Z,96800.53
2023-04-04T09:06:05.103Z,96805.59
2023-04-04T09:08:32.320Z,96800.22
2023-04-04T09:11:03.532Z,96802.53
2023-04-04T09:13:30.767Z,96791.41
2023-04-04T09:15:59.165Z,96796.50
2023-04-04T09:18:26.267Z,96795.53
2023-04-04T09:20:54.368Z,96809.31
2023-04-04T09:23:23.912Z,96812.13
2023-04-04T09:28:25.752Z,96824.53
2023-04-04T09:30:53.216Z,96818.63
2023-04-04T09:33:22.361Z,96821.25
2023-04-04T09:35:56.353Z,96820.13
2023-04-04T09:38:28.492Z,96821.25
2023-04-04T09:40:56.223Z,96820.59
2023-04-04T09:43:26.542Z,96823.91
2023-04-04T10:17:10.749Z,96822.56
2023-04-04T10:19:38.623Z,96825.84
2023-04-04T10:22:06.666Z,96826.16
2023-04-04T10:24:33.864Z,96818.75
2023-04-04T10:27:01.309Z,96827.41
2023-04-04T10:29:28.427Z,96827.56
2023-04-04T10:32:05.247Z,96829.41
2023-04-04T10:34:56.314Z,96825.66
2023-04-04T10:37:28.093Z,96822.19
2023-04-04T10:40:13.693Z,96820.16
2023-04-04T10:42:46.989Z,96821.22
2023-04-04T10:45:21.271Z,96828.78
2023-04-04T10:47:49.725Z,96827.38
2023-04-04T10:50:16.949Z,96838.16
2023-04-04T10:52:46.019Z,96834.25
2023-04-04T10:55:15.145Z,96828.88
2023-04-04T10:57:47.816Z,96829.16
2023-04-04T11:00:18.873Z,96824.38
2023-04-04T11:02:46.159Z,96822.69
2023-04-04T11:05:17.855Z,96825.91
2023-04-04T11:07:57.172Z,96834.56
2023-04-04T11:10:43.408Z,96826.88
2023-04-04T11:13:24.983Z,96822.66
2023-04-04T11:15:58.200Z,96826.66
2023-04-04T11:18:43.635Z,96832.50
2023-04-04T11:21:24.020Z,96818.03
2023-04-04T11:24:03.205Z,96813.63
2023-04-04T11:26:33.059Z,96813.34
2023-04-04T11:29:02.401Z,96814.94
2023-04-04T11:31:32.690Z,96807.13
2023-04-04T11:34:12.793Z,96812.16
2023-04-04T11:36:44.766Z,96813.63
2023-04-04T11:39:15.831Z,96812.56
2023-04-04T11:41:51.219Z,96813.31
2023-04-04T11:44:18.950Z,96801.81
2023-04-04T11:46:51.010Z,96806.19
2023-04-04T11:49:18.729Z,96808.50
2023-04-04T11:51:46.849Z,96814.88
2023-04-04T11:54:17.916Z,96810.19
2023-04-04T11:56:46.104Z,96803.56
2023-04-04T11:59:18.104Z,96803.25
2023-04-04T12:01:46.241Z,96800.03
2023-04-04T12:04:20.082Z,96803.69
2023-04-04T12:06:53.691Z,96793.63
2023-04-04T12:09:22.684Z,96803.22
2023-04-04T12:11:50.823Z,96792.09
2023-04-04T12:14:19.039Z,96790.63
2023-04-04T12:16:49.117Z,96794.97
2023-04-04T12:19:18.542Z,96796.25
2023-04-04T12:21:48.959Z,96796.66
2023-04-04T12:24:16.845Z,96791.19
2023-04-04T12:26:46.449Z,96799.06
2023-04-04T12:29:15.388Z,96805.75
2023-04-04T12:31:45.006Z,96799.50
2023-04-04T12:34:26.238Z,96793.25
2023-04-04T12:36:57.034Z,96792.28
2023-04-04T12:39:27.718Z,96789.34
2023-04-04T12:41:58.090Z,96788.16
2023-04-04T12:44:31.676Z,96781.38
2023-04-04T12:47:04.758Z,96774.97
2023-04-04T12:49:44.374Z,96780.53
2023-04-04T12:52:39.720Z,96772.97
2023-04-04T12:55:09.713Z,96767.81
2023-04-04T12:57:39.563Z,96773.56
2023-04-04T13:00:09.205Z,96772.03
2023-04-04T13:02:43.189Z,96763.56
2023-04-04T13:05:11.372Z,96765.19
2023-04-04T13:07:43.651Z,96757.69
2023-04-04T13:10:15.160Z,96756.03
2023-04-04T13:13:00.372Z,96768.09
2023-04-04T13:15:50.558Z,96770.09
2023-04-04T13:18:23.894Z,96774.91
2023-04-04T13:20:53.375Z,96769.91
2023-04-04T13:23:22.940Z,96768.09
2023-04-04T13:25:50.532Z,96771.38
2023-04-04T13:28:18.027Z,96767.75
2023-04-04T13:30:49.418Z,96771.56
2023-04-04T13:33:17.869Z,96772.75
2023-04-04T13:35:46.615Z,96780.56
2023-04-04T13:38:13.925Z,96776.47
2023-04-04T13:40:41.273Z,96773.22
2023-04-04T13:43:08.922Z,96773.84
2023-04-04T13:45:36.155Z,96775.19
2023-04-04T13:48:04.479Z,96781.44
2023-04-04T13:50:33.292Z,96783.25
2023-04-04T13:53:00.311Z,96788.38
2023-04-04T13:55:28.190Z,96779.00
2023-04-04T13:57:55.296Z,96785.50
2023-04-04T14:00:22.791Z,96781.44
2023-04-04T14:02:54.157Z,96783.44
2023-04-04T14:05:23.458Z,96786.44
2023-04-04T14:07:50.824Z,96783.91
2023-04-04T14:10:18.139Z,96782.72
2023-04-04T14:12:45.544Z,96777.38
2023-04-04T14:15:13.381Z,96775.81
2023-04-04T14:17:40.740Z,96777.19
2023-04-04T14:20:08.784Z,96779.09
2023-04-04T14:22:36.330Z,96784.34
2023-04-04T14:25:05.047Z,96789.53
2023-04-04T14:27:32.265Z,96783.91
2023-04-04T14:29:59.394Z,96785.78
2023-04-04T14:32:27.611Z,96787.34
2023-04-04T14:34:54.783Z,96781.16
2023-04-04T14:37:22.386Z,96781.78
2023-04-04T14:39:49.869Z,96785.78
2023-04-04T14:42:16.979Z,96785.03
2023-04-04T14:44:44.083Z,96787.00
2023-04-04T14:47:11.206Z,96790.38
2023-04-04T14:49:38.263Z,96793.88
2023-04-04T14:52:05.491Z,96798.97
2023-04-04T14:54:32.638Z,96794.38
2023-04-04T14:56:59.954Z,96797.75
2023-04-04T14:59:27.033Z,96809.72
2023-04-04T15:01:54.104Z,96798.31
2023-04-04T15:04:21.304Z,96807.66
2023-04-04T15:06:48.686Z,96802.75
2023-04-04T15:09:16.513Z,96806.16
2023-04-04T15:11:43.719Z,96805.47
2023-04-04T15:14:10.919Z,96802.75
2023-04-04T15:16:38.634Z,96810.59
2023-04-04T15:19:05.792Z,96813.16
2023-04-04T15:21:32.937Z,96819.28
2023-04-04T15:24:00.048Z,96810.41
2023-04-04T15:26:27.170Z,96805.47
2023-04-04T15:28:54.372Z,96812.34
2023-04-04T15:31:21.616Z,96817.78
2023-04-04T15:33:48.905Z,96824.22
2023-04-04T15:36:16.176Z,96812.69
2023-04-04T15:38:43.472Z,96811.25
2023-04-04T15:41:10.672Z,96814.00
2023-04-04T15:43:38.304Z,96819.09
2023-04-04T15:46:05.697Z,96820.31
2023-04-04T15:48:34.539Z,96824.59
2023-04-04T15:51:05.156Z,96824.78
2023-04-04T15:53:32.922Z,96831.03
2023-04-04T15:56:00.891Z,96823.66
2023-04-04T15:58:28.179Z,96824.16
2023-04-04T16:00:56.119Z,96836.84
2023-04-04T16:03:25.790Z,96832.63
2023-04-04T16:05:53.082Z,96827.72
2023-04-04T16:08:20.232Z,96830.19
2023-04-04T16:10:47.314Z,96833.97
2023-04-04T16:13:14.506Z,96829.13
2023-04-04T16:15:41.655Z,96828.03
2023-04-04T16:18:09.017Z,96824.06
2023-04-04T16:20:36.366Z,96816.09
2023-04-04T16:23:03.471Z,96824.66
2023-04-04T16:25:30.708Z,96827.19
2023-04-04T16:27:57.823Z,96828.41
2023-04-04T16:30:25.021Z,96823.63
2023-04-04T16:32:52.283Z,96815.00
2023-04-04T16:35:19.429Z,96819.81
2023-04-04T16:37:46.816Z,96831.34
2023-04-04T16:40:15.535Z,96841.69
2023-04-04T16:42:42.741Z,96850.06
2023-04-04T16:45:10.534Z,96830.63
2023-04-04T16:47:37.872Z,96836.28
2023-04-04T16:50:06.664Z,96832.59
2023-04-04T16:52:33.724Z,96836.09
2023-04-04T16:55:00.926Z,96828.16
2023-04-04T16:57:28.006Z,96827.25
2023-04-04T16:59:55.255Z,96826.50
2023-04-04T17:02:22.372Z,96824.63
2023-04-04T17:04:49.515Z,96842.34
2023-04-04T17:07:17.060Z,96849.78
2023-04-04T17:09:45.973Z,96848.03
2023-04-04T17:12:14.654Z,96856.44
2023-04-04T17:14:41.925Z,96857.41
2023-04-04T17:17:09.221Z,96863.44
2023-04-04T17:19:37.386Z,96863.88
2023-04-04T17:22:04.516Z,96862.78
2023-04-04T17:24:32.484Z,96871.69
2023-04-04T17:27:01.605Z,96886.50
2023-04-04T17:29:29.034Z,96901.06
2023-04-04T17:31:57.413Z,96901.50
2023-04-04T17:34:24.701Z,96905.19
2023-04-04T17:36:53.460Z,96903.94
2023-04-04T17:39:20.755Z,96910.78
2023-04-04T17:41:57.145Z,96909.69
2023-04-04T17:44:24.292Z,96920.94
2023-04-04T17:46:51.885Z,96927.09
2023-04-04T17:49:22.009Z,96932.44
2023-04-04T17:51:49.598Z,96934.91
2023-04-04T17:54:17.447Z,96950.34
2023-04-04T17:56:46.981Z,96941.88
2023-04-04T17:59:15.052Z,96940.28
2023-04-04T18:01:42.424Z,96950.97
2023-04-04T18:04:09.773Z,96951.59
2023-04-04T18:06:40.141Z,96958.16
2023-04-04T18:09:08.822Z,96977.44
2023-04-04T18:11:37.073Z,96968.19
2023-04-04T18:14:04.577Z,96966.47
2023-04-04T18:16:38.935Z,96974.84
2023-04-04T18:19:07.329Z,96974.63
2023-04-04T18:21:34.471Z,96977.19
2023-04-04T18:24:01.691Z,96973.78
2023-04-04T18:26:28.930Z,96980.97
2023-04-04T18:28:56.099Z,96975.72
2023-04-04T18:31:23.253Z,96979.06
2023-04-04T18:33:50.498Z,96996.16
2023-04-04T18:36:17.733Z,96994.75
2023-04-04T18:38:47.823Z,96973.66
2023-04-04T18:41:17.474Z,96996.84
2023-04-04T18:43:44.678Z,96986.19
2023-04-04T18:46:12.341Z,96991.16
2023-04-04T18:48:39.572Z,96998.22
2023-04-04T18:51:08.082Z,96995.22
2023-04-04T18:53:35.145Z,97002.78
2023-04-04T18:56:02.169Z,96981.56
2023-04-04T18:58:29.320Z,96983.19
2023-04-04T19:00:58.619Z,96977.13
2023-04-04T19:03:26.687Z,96979.47
2023-04-04T19:05:55.712Z,96977.97
2023-04-04T19:08:24.236Z,96975.53
2023-04-04T19:10:51.550Z,96975.97
2023-04-04T19:13:18.628Z,96985.66
2023-04-04T19:15:45.877Z,96998.50
2023-04-04T19:18:12.970Z,96988.59
2023-04-04T19:20:42.333Z,97001.47
2023-04-04T19:23:10.476Z,96998.41
2023-04-04T19:25:37.595Z,97009.25
2023-04-04T19:28:04.910Z,97005.22
2023-04-04T19:30:35.002Z,97001.78
2023-04-04T19:33:03.490Z,97011.91
2023-04-04T19:35:54.425Z,96998.72
2023-04-04T19:38:36.357Z,96982.34
2023-04-04T19:41:26.392Z,96991.53
2023-04-04T19:43:53.548Z,96988.22
2023-04-04T19:46:41.161Z,96984.34
2023-04-04T19:49:13.768Z,96976.22
2023-04-04T19:51:55.544Z,96969.84
2023-04-04T19:54:28.821Z,96984.31
2023-04-04T19:57:06.525Z,96989.75
2023-04-04T19:59:58.833Z,96995.94
2023-04-04T20:02:33.017Z,96998.97
2023-04-04T20:05:01.268Z,96987.44
2023-04-04T20:07:29.160Z,96988.25
2023-04-04T20:09:56.322Z,96992.81
2023-04-04T20:12:24.724Z,96994.50
2023-04-04T20:14:55.870Z,96988.91
2023-04-04T20:17:23.062Z,96980.09
2023-04-04T20:19:50.229Z,96981.03
2023-04-04T20:22:17.844Z,96958.91
2023-04-04T20:24:47.218Z,96979.38
2023-04-04T20:27:27.844Z,96975.81
2023-04-04T20:29:54.962Z,96987.19
2023-04-04T20:32:22.247Z,96985.66
2023-04-04T20:34:50.741Z,96984.72
2023-04-04T20:37:22.940Z,96976.84
2023-04-04T20:39:55.044Z,96977.28
2023-04-04T20:42:40.515Z,96972.34
2023-04-04T20:45:11.218Z,96979.38
2023-04-04T20:47:52.282Z,96986.09
2023-04-04T20:50:22.424Z,97001.13
2023-04-04T20:52:53.243Z,96996.47
2023-04-04T20:55:22.740Z,96992.16
2023-04-04T20:57:54.942Z,97001.34
2023-04-04T21:00:34.101Z,97010.03
2023-04-04T21:03:09.227Z,97024.03
2023-04-04T21:05:39.619Z,97025.06
2023-04-04T21:08:34.077Z,97014.59
2023-04-04T21:11:01.261Z,97015.44
2023-04-04T21:13:32.426Z,97016.59
2023-04-04T21:16:01.050Z,97014.00
2023-04-04T21:18:30.983Z,97002.94
2023-04-04T21:20:58.066Z,97006.44
2023-04-04T21:23:25.134Z,97004.09
2023-04-04T21:25:56.700Z,97009.47
2023-04-04T21:28:37.269Z,96996.78
2023-04-04T21:31:15.139Z,97009.06
2023-04-04T21:33:50.864Z,96998.84
2023-04-04T21:36:23.827Z,97008.06
2023-04-04T21:38:55.624Z,97015.91
2023-04-04T21:41:35.490Z,97013.88
2023-04-04T21:44:05.540Z,97023.00
2023-04-04T21:46:34.350Z,97028.75
2023-04-04T21:49:01.927Z,97013.56
2023-04-04T21:51:29.178Z,97035.41
2023-04-04T21:53:56.465Z,97023.41
2023-04-04T21:56:27.410Z,97031.38
2023-04-04T21:58:55.737Z,97019.59
2023-04-04T22:01:22.959Z,97030.84
2023-04-04T22:03:50.078Z,97037.47
2023-04-04T22:06:17.712Z,97044.09
2023-04-04T22:08:44.813Z,97035.59
2023-04-04T22:11:19.403Z,97024.44
2023-04-04T22:13:48.390Z,97038.91
2023-04-04T22:16:17.661Z,97035.47
2023-04-04T22:18:52.131Z,97045.00
2023-04-04T22:21:26.131Z,97031.38
2023-04-04T22:24:01.041Z,97034.25
2023-04-04T22:26:34.336Z,97044.09
2023-04-04T22:29:03.691Z,97047.50
2023-04-04T22:31:31.330Z,97056.19
2023-04-04T22:33:58.477Z,97058.75
2023-04-04T22:36:25.615Z,97057.13
2023-04-04T22:38:59.094Z,97066.94
2023-04-04T22:41:29.961Z,97053.09
2023-04-04T22:43:58.295Z,97049.91
2023-04-04T22:46:26.649Z,97059.06
2023-04-04T22:49:13.537Z,97068.00
2023-04-04T22:51:44.170Z,97053.00
2023-04-04T22:54:17.005Z,97078.94
2023-04-04T22:56:44.725Z,97069.94
2023-04-04T22:59:12.121Z,97059.91
2023-04-04T23:01:40.009Z,97048.44
2023-04-04T23:04:07.350Z,97071.00
2023-04-04T23:06:34.449Z,97069.22
2023-04-04T23:09:02.748Z,97072.00
2023-04-04T23:11:30.620Z,97063.31
2023-04-04T23:13:57.838Z,97087.41
2023-04-04T23:16:26.530Z,97061.06
2023-04-04T23:18:53.832Z,97066.94
2023-04-04T23:21:22.210Z,97082.88
2023-04-04T23:23:49.462Z,97074.28
2023-04-04T23:26:16.508Z,97086.78
2023-04-04T23:28:43.541Z,97077.88
2023-04-04T23:31:10.878Z,97085.44
2023-04-04T23:33:38.224Z,97075.41
2023-04-04T23:36:05.647Z,97085.56
2023-04-04T23:38:32.753Z,97095.78
2023-04-04T23:40:59.861Z,97071.78
2023-04-04T23:43:26.942Z,97057.34
2023-04-04T23:45:54.158Z,97072.19
2023-04-04T23:48:21.519Z,97070.78
2023-04-04T23:50:50.288Z,97073.44
2023-04-04T23:53:17.512Z,97073.44
2023-04-04T23:55:44.624Z,97069.84
2023-04-04T23:58:11.877Z,97063.63
